sensor_id;sensor_type;location;lat;lon;timestamp;pressure;altitude;pressure_sealevel;temperature;humidity
70370;BME280;57790;51.356;-2.906;2022-08-21T00:01:11;101695.78;;;20.11;59.20
70370;BME280;57790;51.356;-2.906;2022-08-21T00:04:13;101692.44;;;20.09;58.90
70370;BME280;57790;51.356;-2.906;2022-08-21T00:07:14;101695.53;;;20.06;59.38
70370;BME280;57790;51.356;-2.906;2022-08-21T00:10:15;101702.16;;;20.04;59.45
70370;BME280;57790;51.356;-2.906;2022-08-21T00:13:17;101688.06;;;20.02;59.91
70370;BME280;57790;51.356;-2.906;2022-08-21T00:16:17;101689.53;;;19.98;59.95
70370;BME280;57790;51.356;-2.906;2022-08-21T00:19:18;101697.97;;;19.95;60.09
70370;BME280;57790;51.356;-2.906;2022-08-21T00:22:18;101687.22;;;19.95;60.45
70370;BME280;57790;51.356;-2.906;2022-08-21T00:25:19;101690.09;;;19.93;60.53
70370;BME280;57790;51.356;-2.906;2022-08-21T00:28:20;101685.53;;;19.94;60.68
70370;BME280;57790;51.356;-2.906;2022-08-21T00:31:20;101687.22;;;19.95;60.75
70370;BME280;57790;51.356;-2.906;2022-08-21T00:34:21;101687.63;;;19.91;60.61
70370;BME280;57790;51.356;-2.906;2022-08-21T00:37:21;101683.06;;;19.92;60.84
70370;BME280;57790;51.356;-2.906;2022-08-21T00:40:27;101681.81;;;19.88;60.86
70370;BME280;57790;51.356;-2.906;2022-08-21T00:43:33;101673.94;;;19.86;60.63
70370;BME280;57790;51.356;-2.906;2022-08-21T00:46:35;101675.19;;;19.84;60.57
70370;BME280;57790;51.356;-2.906;2022-08-21T00:49:36;101678.69;;;19.84;60.44
70370;BME280;57790;51.356;-2.906;2022-08-21T00:52:37;101670.00;;;19.82;60.55
70370;BME280;57790;51.356;-2.906;2022-08-21T00:55:40;101678.69;;;19.84;60.61
70370;BME280;57790;51.356;-2.906;2022-08-21T00:58:41;101672.69;;;19.82;60.95
70370;BME280;57790;51.356;-2.906;2022-08-21T01:01:42;101678.50;;;19.86;60.87
70370;BME280;57790;51.356;-2.906;2022-08-21T01:04:43;101673.09;;;19.86;60.89
70370;BME280;57790;51.356;-2.906;2022-08-21T01:07:45;101676.84;;;19.85;61.06
70370;BME280;57790;51.356;-2.906;2022-08-21T01:10:46;101672.28;;;19.85;61.15
70370;BME280;57790;51.356;-2.906;2022-08-21T01:13:47;101667.72;;;19.86;61.40
70370;BME280;57790;51.356;-2.906;2022-08-21T01:16:51;101671.03;;;19.88;61.23
70370;BME280;57790;51.356;-2.906;2022-08-21T01:19:53;101677.66;;;19.85;61.16
70370;BME280;57790;51.356;-2.906;2022-08-21T01:22:57;101674.97;;;19.85;61.39
70370;BME280;57790;51.356;-2.906;2022-08-21T01:25:57;101683.03;;;19.85;61.28
70370;BME280;57790;51.356;-2.906;2022-08-21T01:29:07;101676.22;;;19.83;61.28
70370;BME280;57790;51.356;-2.906;2022-08-21T01:32:14;101671.84;;;19.82;61.30
70370;BME280;57790;51.356;-2.906;2022-08-21T01:35:16;101670.00;;;19.82;61.51
70370;BME280;57790;51.356;-2.906;2022-08-21T01:38:18;101665.63;;;19.81;61.38
70370;BME280;57790;51.356;-2.906;2022-08-21T01:41:18;101668.50;;;19.80;61.41
70370;BME280;57790;51.356;-2.906;2022-08-21T01:44:23;101666.03;;;19.78;61.72
70370;BME280;57790;51.356;-2.906;2022-08-21T01:47:23;101658.34;;;19.75;61.81
70370;BME280;57790;51.356;-2.906;2022-08-21T01:50:24;101661.47;;;19.72;61.97
70370;BME280;57790;51.356;-2.906;2022-08-21T01:53:24;101655.66;;;19.69;62.43
70370;BME280;57790;51.356;-2.906;2022-08-21T01:56:25;101660.38;;;19.67;62.45
70370;BME280;57790;51.356;-2.906;2022-08-21T01:59:26;101659.53;;;19.66;62.57
70370;BME280;57790;51.356;-2.906;2022-08-21T02:02:27;101658.09;;;19.64;62.58
70370;BME280;57790;51.356;-2.906;2022-08-21T02:05:28;101656.22;;;19.64;62.88
70370;BME280;57790;51.356;-2.906;2022-08-21T02:08:28;101659.31;;;19.61;62.71
70370;BME280;57790;51.356;-2.906;2022-08-21T02:11:29;101660.56;;;19.58;62.85
70370;BME280;57790;51.356;-2.906;2022-08-21T02:14:29;101660.13;;;19.55;63.04
70370;BME280;57790;51.356;-2.906;2022-08-21T02:18:00;101654.09;;;19.53;63.20
70370;BME280;57790;51.356;-2.906;2022-08-21T02:21:01;101658.81;;;19.51;63.04
70370;BME280;57790;51.356;-2.906;2022-08-21T02:24:02;101655.50;;;19.49;63.18
70370;BME280;57790;51.356;-2.906;2022-08-21T02:27:03;101654.88;;;19.47;63.27
70370;BME280;57790;51.356;-2.906;2022-08-21T02:30:03;101661.47;;;19.44;63.75
70370;BME280;57790;51.356;-2.906;2022-08-21T02:33:05;101656.09;;;19.44;63.55
70370;BME280;57790;51.356;-2.906;2022-08-21T02:36:08;101656.09;;;19.44;63.81
70370;BME280;57790;51.356;-2.906;2022-08-21T02:39:08;101652.59;;;19.44;63.51
70370;BME280;57790;51.356;-2.906;2022-08-21T02:42:09;101643.47;;;19.45;63.77
70370;BME280;57790;51.356;-2.906;2022-08-21T02:45:11;101656.94;;;19.45;63.98
70370;BME280;57790;51.356;-2.906;2022-08-21T02:48:14;101655.06;;;19.45;63.92
70370;BME280;57790;51.356;-2.906;2022-08-21T02:51:18;101648.03;;;19.44;63.80
70370;BME280;57790;51.356;-2.906;2022-08-21T02:54:19;101644.50;;;19.44;63.88
70370;BME280;57790;51.356;-2.906;2022-08-21T02:57:20;101636.84;;;19.41;63.45
70370;BME280;57790;51.356;-2.906;2022-08-21T03:00:21;101639.34;;;19.42;63.77
70370;BME280;57790;51.356;-2.906;2022-08-21T03:03:22;101620.91;;;19.39;63.65
70370;BME280;57790;51.356;-2.906;2022-08-21T03:06:23;101624.44;;;19.40;63.79
70370;BME280;57790;51.356;-2.906;2022-08-21T03:09:24;101619.44;;;19.37;63.91
70370;BME280;57790;51.356;-2.906;2022-08-21T03:12:25;101618.59;;;19.36;63.88
70370;BME280;57790;51.356;-2.906;2022-08-21T03:15:25;101631.63;;;19.32;64.00
70370;BME280;57790;51.356;-2.906;2022-08-21T03:18:26;101632.03;;;19.29;64.10
70370;BME280;57790;51.356;-2.906;2022-08-21T03:21:26;101634.28;;;19.26;64.07
70370;BME280;57790;51.356;-2.906;2022-08-21T03:24:27;101623.91;;;19.23;64.25
70370;BME280;57790;51.356;-2.906;2022-08-21T03:27:28;101628.66;;;19.21;64.25
70370;BME280;57790;51.356;-2.906;2022-08-21T03:30:30;101627.19;;;19.18;64.62
70370;BME280;57790;51.356;-2.906;2022-08-21T03:33:31;101631.09;;;19.16;64.25
70370;BME280;57790;51.356;-2.906;2022-08-21T03:36:32;101630.69;;;19.12;64.20
70370;BME280;57790;51.356;-2.906;2022-08-21T03:39:32;101634.41;;;19.11;64.18
70370;BME280;57790;51.356;-2.906;2022-08-21T03:42:33;101617.81;;;19.08;64.70
70370;BME280;57790;51.356;-2.906;2022-08-21T03:45:34;101626.69;;;19.08;64.49
70370;BME280;57790;51.356;-2.906;2022-08-21T03:48:35;101617.38;;;19.04;64.39
70370;BME280;57790;51.356;-2.906;2022-08-21T03:51:36;101619.22;;;19.03;64.24
70370;BME280;57790;51.356;-2.906;2022-08-21T03:54:37;101617.56;;;19.02;64.54
70370;BME280;57790;51.356;-2.906;2022-08-21T03:57:38;101614.47;;;18.99;64.37
70370;BME280;57790;51.356;-2.906;2022-08-21T04:00:39;101617.16;;;18.99;64.40
70370;BME280;57790;51.356;-2.906;2022-08-21T04:03:39;101629.94;;;18.97;64.73
70370;BME280;57790;51.356;-2.906;2022-08-21T04:06:40;101634.88;;;18.93;63.97
70370;BME280;57790;51.356;-2.906;2022-08-21T04:09:40;101637.75;;;18.92;64.10
70370;BME280;57790;51.356;-2.906;2022-08-21T04:12:40;101640.63;;;18.90;63.91
70370;BME280;57790;51.356;-2.906;2022-08-21T04:15:41;101638.16;;;18.89;64.04
70370;BME280;57790;51.356;-2.906;2022-08-21T04:18:42;101651.34;;;18.84;64.19
70370;BME280;57790;51.356;-2.906;2022-08-21T04:21:43;101645.16;;;18.83;63.96
70370;BME280;57790;51.356;-2.906;2022-08-21T04:24:43;101648.38;;;18.79;63.95
70370;BME280;57790;51.356;-2.906;2022-08-21T04:27:44;101667.19;;;18.79;64.10
70370;BME280;57790;51.356;-2.906;2022-08-21T04:30:45;101661.19;;;18.77;63.57
70370;BME280;57790;51.356;-2.906;2022-08-21T04:33:45;101677.50;;;18.75;64.13
70370;BME280;57790;51.356;-2.906;2022-08-21T04:36:46;101681.41;;;18.72;64.13
70370;BME280;57790;51.356;-2.906;2022-08-21T04:39:46;101695.03;;;18.71;63.78
70370;BME280;57790;51.356;-2.906;2022-08-21T04:42:49;101697.94;;;18.69;64.00
70370;BME280;57790;51.356;-2.906;2022-08-21T04:45:51;101691.25;;;18.65;63.99
70370;BME280;57790;51.356;-2.906;2022-08-21T04:48:51;101697.09;;;18.69;64.07
70370;BME280;57790;51.356;-2.906;2022-08-21T04:51:52;101691.72;;;18.69;64.49
70370;BME280;57790;51.356;-2.906;2022-08-21T04:54:52;101675.59;;;18.69;64.28
70370;BME280;57790;51.356;-2.906;2022-08-21T04:57:54;101673.28;;;18.66;64.24
70370;BME280;57790;51.356;-2.906;2022-08-21T05:00:57;101667.28;;;18.64;64.18
70370;BME280;57790;51.356;-2.906;2022-08-21T05:04:00;101654.84;;;18.63;64.22
70370;BME280;57790;51.356;-2.906;2022-08-21T05:07:04;101659.56;;;18.61;64.12
70370;BME280;57790;51.356;-2.906;2022-08-21T05:10:06;101654.41;;;18.59;63.73
70370;BME280;57790;51.356;-2.906;2022-08-21T05:13:08;101648.41;;;18.57;63.99
70370;BME280;57790;51.356;-2.906;2022-08-21T05:16:10;101638.69;;;18.56;63.88
70370;BME280;57790;51.356;-2.906;2022-08-21T05:19:10;101649.41;;;18.56;64.04
70370;BME280;57790;51.356;-2.906;2022-08-21T05:22:11;101659.34;;;18.56;63.83
70370;BME280;57790;51.356;-2.906;2022-08-21T05:25:11;101672.75;;;18.56;63.92
70370;BME280;57790;51.356;-2.906;2022-08-21T05:28:12;101666.75;;;18.54;64.16
70370;BME280;57790;51.356;-2.906;2022-08-21T05:31:12;101671.28;;;18.53;64.25
70370;BME280;57790;51.356;-2.906;2022-08-21T05:34:22;101677.50;;;18.54;64.08
70370;BME280;57790;51.356;-2.906;2022-08-21T05:37:23;101680.38;;;18.52;64.11
70370;BME280;57790;51.356;-2.906;2022-08-21T05:40:24;101670.00;;;18.49;64.02
70370;BME280;57790;51.356;-2.906;2022-08-21T05:43:24;101663.59;;;18.50;64.67
70370;BME280;57790;51.356;-2.906;2022-08-21T05:46:25;101665.25;;;18.51;64.51
70370;BME280;57790;51.356;-2.906;2022-08-21T05:49:26;101667.13;;;18.51;64.09
70370;BME280;57790;51.356;-2.906;2022-08-21T05:52:26;101660.91;;;18.50;64.24
70370;BME280;57790;51.356;-2.906;2022-08-21T05:55:27;101653.69;;;18.51;64.70
70370;BME280;57790;51.356;-2.906;2022-08-21T05:58:27;101649.16;;;18.51;64.48
70370;BME280;57790;51.356;-2.906;2022-08-21T06:01:28;101648.31;;;18.51;64.41
70370;BME280;57790;51.356;-2.906;2022-08-21T06:04:29;101646.47;;;18.51;64.58
70370;BME280;57790;51.356;-2.906;2022-08-21T06:07:30;101645.47;;;18.52;64.49
70370;BME280;57790;51.356;-2.906;2022-08-21T06:10:31;101635.72;;;18.51;64.59
70370;BME280;57790;51.356;-2.906;2022-08-21T06:13:31;101632.03;;;18.52;64.42
70370;BME280;57790;51.356;-2.906;2022-08-21T06:16:32;101634.53;;;18.54;64.68
70370;BME280;57790;51.356;-2.906;2022-08-21T06:19:33;101626.28;;;18.55;64.20
70370;BME280;57790;51.356;-2.906;2022-08-21T06:22:33;101624.22;;;18.57;64.61
70370;BME280;57790;51.356;-2.906;2022-08-21T06:25:34;101634.97;;;18.57;64.00
70370;BME280;57790;51.356;-2.906;2022-08-21T06:28:35;101646.72;;;18.56;63.85
70370;BME280;57790;51.356;-2.906;2022-08-21T06:31:38;101652.31;;;18.55;64.15
70370;BME280;57790;51.356;-2.906;2022-08-21T06:34:41;101647.38;;;18.58;64.35
70370;BME280;57790;51.356;-2.906;2022-08-21T06:37:41;101643.25;;;18.62;64.13
70370;BME280;57790;51.356;-2.906;2022-08-21T06:40:42;101640.69;;;18.69;63.57
70370;BME280;57790;51.356;-2.906;2022-08-21T06:43:42;101640.72;;;18.76;63.32
70370;BME280;57790;51.356;-2.906;2022-08-21T06:46:42;101641.00;;;18.81;63.35
70370;BME280;57790;51.356;-2.906;2022-08-21T06:49:43;101640.78;;;18.82;63.37
70370;BME280;57790;51.356;-2.906;2022-08-21T06:52:43;101634.41;;;18.83;63.27
70370;BME280;57790;51.356;-2.906;2022-08-21T06:55:44;101641.63;;;18.83;63.38
70370;BME280;57790;51.356;-2.906;2022-08-21T06:58:45;101642.66;;;18.82;63.16
70370;BME280;57790;51.356;-2.906;2022-08-21T07:01:45;101644.31;;;18.83;63.23
70370;BME280;57790;51.356;-2.906;2022-08-21T07:04:46;101648.66;;;18.84;63.02
70370;BME280;57790;51.356;-2.906;2022-08-21T07:07:46;101653.00;;;18.85;63.27
70370;BME280;57790;51.356;-2.906;2022-08-21T07:10:48;101653.63;;;18.87;62.94
70370;BME280;57790;51.356;-2.906;2022-08-21T07:13:49;101662.13;;;18.90;63.13
70370;BME280;57790;51.356;-2.906;2022-08-21T07:16:51;101664.44;;;18.93;63.01
70370;BME280;57790;51.356;-2.906;2022-08-21T07:19:51;101679.53;;;18.94;62.59
70370;BME280;57790;51.356;-2.906;2022-08-21T07:22:52;101677.66;;;18.95;63.04
70370;BME280;57790;51.356;-2.906;2022-08-21T07:25:52;101681.66;;;18.99;63.01
70370;BME280;57790;51.356;-2.906;2022-08-21T07:28:53;101695.31;;;19.04;62.64
70370;BME280;57790;51.356;-2.906;2022-08-21T07:31:54;101694.09;;;19.07;62.65
70370;BME280;57790;51.356;-2.906;2022-08-21T07:34:54;101694.94;;;19.07;62.15
70370;BME280;57790;51.356;-2.906;2022-08-21T07:37:55;101713.19;;;19.12;62.18
70370;BME280;57790;51.356;-2.906;2022-08-21T07:40:56;101706.97;;;19.11;62.08
70370;BME280;57790;51.356;-2.906;2022-08-21T07:43:59;101718.16;;;19.15;62.21
70370;BME280;57790;51.356;-2.906;2022-08-21T07:47:00;101722.13;;;19.19;62.15
70370;BME280;57790;51.356;-2.906;2022-08-21T07:50:01;101716.16;;;19.23;62.01
70370;BME280;57790;51.356;-2.906;2022-08-21T07:53:02;101721.97;;;19.27;62.00
70370;BME280;57790;51.356;-2.906;2022-08-21T07:56:03;101717.03;;;19.30;62.32
70370;BME280;57790;51.356;-2.906;2022-08-21T07:59:04;101725.09;;;19.30;62.12
70370;BME280;57790;51.356;-2.906;2022-08-21T08:02:05;101716.63;;;19.33;61.90
70370;BME280;57790;51.356;-2.906;2022-08-21T08:05:09;101707.53;;;19.35;61.70
70370;BME280;57790;51.356;-2.906;2022-08-21T08:08:09;101710.28;;;19.41;61.61
70370;BME280;57790;51.356;-2.906;2022-08-21T08:11:11;101705.16;;;19.46;60.98
70370;BME280;57790;51.356;-2.906;2022-08-21T08:14:12;101698.66;;;19.62;60.98
70370;BME280;57790;51.356;-2.906;2022-08-21T08:17:12;101690.66;;;19.75;60.44
70370;BME280;57790;51.356;-2.906;2022-08-21T08:20:15;101690.38;;;20.05;60.06
70370;BME280;57790;51.356;-2.906;2022-08-21T08:23:17;101680.72;;;20.30;59.95
70370;BME280;57790;51.356;-2.906;2022-08-21T08:26:17;101682.38;;;20.38;61.08
70370;BME280;57790;51.356;-2.906;2022-08-21T08:29:18;101670.22;;;20.42;59.30
70370;BME280;57790;51.356;-2.906;2022-08-21T08:32:19;101666.50;;;20.56;59.07
70370;BME280;57790;51.356;-2.906;2022-08-21T08:35:20;101669.59;;;20.79;59.88
70370;BME280;57790;51.356;-2.906;2022-08-21T08:38:22;101666.09;;;20.86;59.13
70370;BME280;57790;51.356;-2.906;2022-08-21T08:41:23;101664.66;;;20.83;57.63
70370;BME280;57790;51.356;-2.906;2022-08-21T08:44:23;101663.81;;;20.89;56.69
70370;BME280;57790;51.356;-2.906;2022-08-21T08:47:25;101669.63;;;21.13;55.74
70370;BME280;57790;51.356;-2.906;2022-08-21T08:53:52;101677.41;;;21.67;54.75
70370;BME280;57790;51.356;-2.906;2022-08-21T08:56:55;101667.72;;;21.97;53.27
70370;BME280;57790;51.356;-2.906;2022-08-21T08:59:58;101669.53;;;22.17;52.65
70370;BME280;57790;51.356;-2.906;2022-08-21T09:03:02;101662.97;;;23.56;49.31
70370;BME280;57790;51.356;-2.906;2022-08-21T09:09:29;101642.84;;;23.88;46.74
70370;BME280;57790;51.356;-2.906;2022-08-21T09:13:19;101654.13;;;25.22;44.52
70370;BME280;57790;51.356;-2.906;2022-08-21T09:29:06;101671.84;;;28.38;37.21
70370;BME280;57790;51.356;-2.906;2022-08-21T09:35:20;101661.63;;;29.30;35.94
70370;BME280;57790;51.356;-2.906;2022-08-21T09:38:31;101674.66;;;29.65;35.01
70370;BME280;57790;51.356;-2.906;2022-08-21T09:41:33;101669.38;;;30.11;33.01
70370;BME280;57790;51.356;-2.906;2022-08-21T09:44:40;101665.03;;;30.50;31.72
70370;BME280;57790;51.356;-2.906;2022-08-21T09:47:43;101666.97;;;30.75;31.09
70370;BME280;57790;51.356;-2.906;2022-08-21T09:50:46;101679.28;;;30.98;31.29
70370;BME280;57790;51.356;-2.906;2022-08-21T09:53:53;101671.59;;;31.26;30.40
70370;BME280;57790;51.356;-2.906;2022-08-21T09:56:57;101677.88;;;31.31;29.78
70370;BME280;57790;51.356;-2.906;2022-08-21T10:00:26;101667.13;;;31.55;29.78
70370;BME280;57790;51.356;-2.906;2022-08-21T10:03:27;101671.28;;;31.97;29.80
70370;BME280;57790;51.356;-2.906;2022-08-21T10:06:28;101663.19;;;32.21;28.77
70370;BME280;57790;51.356;-2.906;2022-08-21T10:09:29;101665.66;;;32.28;28.98
70370;BME280;57790;51.356;-2.906;2022-08-21T10:12:44;101673.53;;;32.39;29.43
70370;BME280;57790;51.356;-2.906;2022-08-21T10:16:01;101660.25;;;32.80;28.67
70370;BME280;57790;51.356;-2.906;2022-08-21T10:19:09;101659.97;;;32.14;29.67
70370;BME280;57790;51.356;-2.906;2022-08-21T10:25:37;101662.38;;;32.20;28.83
70370;BME280;57790;51.356;-2.906;2022-08-21T10:28:57;101657.31;;;31.34;30.90
70370;BME280;57790;51.356;-2.906;2022-08-21T10:35:27;101663.38;;;31.05;31.43
70370;BME280;57790;51.356;-2.906;2022-08-21T10:38:52;101647.69;;;32.45;29.05
70370;BME280;57790;51.356;-2.906;2022-08-21T10:48:50;101653.28;;;34.26;24.61
70370;BME280;57790;51.356;-2.906;2022-08-21T10:51:40;101653.97;;;34.83;23.39
70370;BME280;57790;51.356;-2.906;2022-08-21T10:54:54;101663.03;;;34.89;23.42
70370;BME280;57790;51.356;-2.906;2022-08-21T10:58:08;101658.94;;;34.35;24.03
70370;BME280;57790;51.356;-2.906;2022-08-21T11:01:20;101663.72;;;34.11;24.77
70370;BME280;57790;51.356;-2.906;2022-08-21T11:07:49;101666.09;;;34.36;24.38
70370;BME280;57790;51.356;-2.906;2022-08-21T11:11:06;101667.53;;;34.15;24.27
70370;BME280;57790;51.356;-2.906;2022-08-21T11:17:54;101654.47;;;35.04;23.40
70370;BME280;57790;51.356;-2.906;2022-08-21T11:21:26;101649.44;;;35.89;22.57
70370;BME280;57790;51.356;-2.906;2022-08-21T11:27:43;101641.25;;;36.42;21.86
70370;BME280;57790;51.356;-2.906;2022-08-21T11:30:55;101647.25;;;35.99;22.16
70370;BME280;57790;51.356;-2.906;2022-08-21T11:37:23;101646.59;;;35.53;22.67
70370;BME280;57790;51.356;-2.906;2022-08-21T11:47:58;101654.72;;;33.86;24.47
70370;BME280;57790;51.356;-2.906;2022-08-21T11:51:04;101647.88;;;33.12;25.66
70370;BME280;57790;51.356;-2.906;2022-08-21T11:54:37;101648.22;;;32.47;25.87
70370;BME280;57790;51.356;-2.906;2022-08-21T11:57:52;101656.47;;;32.03;27.12
70370;BME280;57790;51.356;-2.906;2022-08-21T12:01:11;101643.13;;;31.81;27.53
70370;BME280;57790;51.356;-2.906;2022-08-21T12:04:41;101650.59;;;31.71;27.92
70370;BME280;57790;51.356;-2.906;2022-08-21T12:07:44;101643.91;;;31.27;28.85
70370;BME280;57790;51.356;-2.906;2022-08-21T12:11:04;101643.94;;;30.92;30.83
70370;BME280;57790;51.356;-2.906;2022-08-21T12:17:34;101654.34;;;31.25;29.58
70370;BME280;57790;51.356;-2.906;2022-08-21T12:20:45;101649.66;;;31.21;29.63
70370;BME280;57790;51.356;-2.906;2022-08-21T12:24:03;101643.13;;;30.45;30.79
70370;BME280;57790;51.356;-2.906;2022-08-21T12:28:02;101649.03;;;29.86;32.79
70370;BME280;57790;51.356;-2.906;2022-08-21T12:31:22;101647.69;;;29.37;32.96
70370;BME280;57790;51.356;-2.906;2022-08-21T12:34:29;101639.13;;;29.13;33.91
70370;BME280;57790;51.356;-2.906;2022-08-21T12:40:47;101644.03;;;29.58;33.63
70370;BME280;57790;51.356;-2.906;2022-08-21T12:44:00;101631.63;;;30.33;32.04
70370;BME280;57790;51.356;-2.906;2022-08-21T12:47:06;101627.47;;;31.87;29.91
70370;BME280;57790;51.356;-2.906;2022-08-21T12:50:16;101623.63;;;31.88;29.55
70370;BME280;57790;51.356;-2.906;2022-08-21T12:56:56;101628.56;;;31.06;30.80
70370;BME280;57790;51.356;-2.906;2022-08-21T12:59:59;101626.91;;;31.30;30.78
70370;BME280;57790;51.356;-2.906;2022-08-21T13:03:16;101630.28;;;30.82;31.11
70370;BME280;57790;51.356;-2.906;2022-08-21T13:06:18;101629.94;;;31.14;32.44
70370;BME280;57790;51.356;-2.906;2022-08-21T13:09:29;101627.22;;;30.93;31.62
70370;BME280;57790;51.356;-2.906;2022-08-21T13:12:31;101620.34;;;31.16;31.36
70370;BME280;57790;51.356;-2.906;2022-08-21T13:15:38;101620.66;;;30.94;33.16
70370;BME280;57790;51.356;-2.906;2022-08-21T13:18:59;101625.03;;;30.95;33.35
70370;BME280;57790;51.356;-2.906;2022-08-21T13:22:01;101616.31;;;30.83;32.51
70370;BME280;57790;51.356;-2.906;2022-08-21T13:25:03;101624.28;;;30.69;33.13
70370;BME280;57790;51.356;-2.906;2022-08-21T13:28:11;101628.38;;;30.57;33.87
70370;BME280;57790;51.356;-2.906;2022-08-21T13:31:48;101623.97;;;30.45;34.00
70370;BME280;57790;51.356;-2.906;2022-08-21T13:34:51;101625.06;;;30.19;33.61
70370;BME280;57790;51.356;-2.906;2022-08-21T13:37:54;101620.69;;;30.13;34.43
70370;BME280;57790;51.356;-2.906;2022-08-21T13:41:03;101613.56;;;30.12;34.17
70370;BME280;57790;51.356;-2.906;2022-08-21T13:44:34;101608.66;;;30.70;33.40
70370;BME280;57790;51.356;-2.906;2022-08-21T13:47:35;101610.47;;;31.15;32.62
70370;BME280;57790;51.356;-2.906;2022-08-21T13:50:37;101606.16;;;30.78;32.90
70370;BME280;57790;51.356;-2.906;2022-08-21T13:56:44;101611.34;;;30.90;32.45
70370;BME280;57790;51.356;-2.906;2022-08-21T13:59:48;101608.66;;;30.65;32.93
70370;BME280;57790;51.356;-2.906;2022-08-21T14:02:51;101615.75;;;30.10;34.92
70370;BME280;57790;51.356;-2.906;2022-08-21T14:05:54;101609.66;;;29.82;35.50
70370;BME280;57790;51.356;-2.906;2022-08-21T14:09:30;101603.28;;;29.61;36.09
70370;BME280;57790;51.356;-2.906;2022-08-21T14:12:38;101609.31;;;29.63;36.15
70370;BME280;57790;51.356;-2.906;2022-08-21T14:15:41;101600.84;;;29.65;35.83
70370;BME280;57790;51.356;-2.906;2022-08-21T14:21:53;101600.69;;;29.34;36.52
70370;BME280;57790;51.356;-2.906;2022-08-21T14:28:30;101598.22;;;29.23;36.49
70370;BME280;57790;51.356;-2.906;2022-08-21T14:31:32;101593.84;;;29.27;37.15
70370;BME280;57790;51.356;-2.906;2022-08-21T14:34:34;101594.13;;;29.30;37.12
70370;BME280;57790;51.356;-2.906;2022-08-21T14:37:35;101594.34;;;29.19;37.11
70370;BME280;57790;51.356;-2.906;2022-08-21T14:40:36;101586.50;;;29.32;37.16
70370;BME280;57790;51.356;-2.906;2022-08-21T14:43:46;101571.13;;;29.16;37.59
70370;BME280;57790;51.356;-2.906;2022-08-21T14:46:46;101583.06;;;29.00;37.98
70370;BME280;57790;51.356;-2.906;2022-08-21T14:49:47;101584.72;;;29.01;38.38
70370;BME280;57790;51.356;-2.906;2022-08-21T14:52:48;101581.97;;;29.01;36.41
70370;BME280;57790;51.356;-2.906;2022-08-21T14:55:48;101573.66;;;28.86;37.89
70370;BME280;57790;51.356;-2.906;2022-08-21T14:59:11;101574.41;;;28.76;36.94
70370;BME280;57790;51.356;-2.906;2022-08-21T15:02:14;101577.38;;;28.69;37.43
70370;BME280;57790;51.356;-2.906;2022-08-21T15:05:18;101569.47;;;28.68;37.91
70370;BME280;57790;51.356;-2.906;2022-08-21T15:08:19;101571.94;;;28.69;37.85
70370;BME280;57790;51.356;-2.906;2022-08-21T15:11:21;101579.84;;;28.71;36.65
70370;BME280;57790;51.356;-2.906;2022-08-21T15:14:27;101578.63;;;28.89;35.53
70370;BME280;57790;51.356;-2.906;2022-08-21T15:17:29;101573.31;;;29.14;35.84
70370;BME280;57790;51.356;-2.906;2022-08-21T15:20:29;101571.13;;;29.16;35.05
70370;BME280;57790;51.356;-2.906;2022-08-21T15:23:30;101580.41;;;28.73;36.06
70370;BME280;57790;51.356;-2.906;2022-08-21T15:26:30;101585.25;;;28.61;36.96
70370;BME280;57790;51.356;-2.906;2022-08-21T15:29:31;101582.75;;;28.54;36.20
70370;BME280;57790;51.356;-2.906;2022-08-21T15:32:32;101572.81;;;28.38;37.17
70370;BME280;57790;51.356;-2.906;2022-08-21T15:35:33;101573.78;;;28.27;37.15
70370;BME280;57790;51.356;-2.906;2022-08-21T15:38:33;101581.56;;;28.13;37.31
70370;BME280;57790;51.356;-2.906;2022-08-21T15:41:36;101578.38;;;27.94;38.68
70370;BME280;57790;51.356;-2.906;2022-08-21T15:44:43;101574.44;;;27.80;38.74
70370;BME280;57790;51.356;-2.906;2022-08-21T15:47:45;101577.34;;;27.73;38.88
70370;BME280;57790;51.356;-2.906;2022-08-21T15:50:46;101574.41;;;27.58;38.88
70370;BME280;57790;51.356;-2.906;2022-08-21T15:53:49;101569.66;;;27.48;39.56
70370;BME280;57790;51.356;-2.906;2022-08-21T15:56:52;101567.97;;;27.42;38.93
70370;BME280;57790;51.356;-2.906;2022-08-21T15:59:56;101571.47;;;27.38;39.03
70370;BME280;57790;51.356;-2.906;2022-08-21T16:03:14;101562.16;;;27.12;39.38
70370;BME280;57790;51.356;-2.906;2022-08-21T16:06:19;101557.28;;;26.97;40.39
70370;BME280;57790;51.356;-2.906;2022-08-21T16:09:25;101569.19;;;26.91;40.84
70370;BME280;57790;51.356;-2.906;2022-08-21T16:12:32;101572.97;;;26.90;41.54
70370;BME280;57790;51.356;-2.906;2022-08-21T16:15:40;101555.50;;;26.86;41.11
70370;BME280;57790;51.356;-2.906;2022-08-21T16:18:40;101562.78;;;26.80;41.66
70370;BME280;57790;51.356;-2.906;2022-08-21T16:21:41;101573.00;;;26.73;41.83
70370;BME280;57790;51.356;-2.906;2022-08-21T16:24:47;101578.31;;;26.63;41.61
70370;BME280;57790;51.356;-2.906;2022-08-21T16:27:57;101585.22;;;26.54;41.82
70370;BME280;57790;51.356;-2.906;2022-08-21T16:30:59;101585.56;;;26.41;42.76
70370;BME280;57790;51.356;-2.906;2022-08-21T16:33:59;101588.50;;;26.22;43.21
70370;BME280;57790;51.356;-2.906;2022-08-21T16:37:00;101585.91;;;26.16;43.74
70370;BME280;57790;51.356;-2.906;2022-08-21T16:40:01;101586.81;;;26.04;43.85
70370;BME280;57790;51.356;-2.906;2022-08-21T16:43:04;101582.84;;;25.95;43.58
70370;BME280;57790;51.356;-2.906;2022-08-21T16:46:06;101585.81;;;25.94;44.08
70370;BME280;57790;51.356;-2.906;2022-08-21T16:49:08;101577.69;;;25.82;44.53
70370;BME280;57790;51.356;-2.906;2022-08-21T16:52:11;101572.19;;;25.77;44.57
70370;BME280;57790;51.356;-2.906;2022-08-21T16:55:12;101568.03;;;25.74;44.52
70370;BME280;57790;51.356;-2.906;2022-08-21T16:58:25;101574.06;;;25.76;44.41
70370;BME280;57790;51.356;-2.906;2022-08-21T17:01:33;101575.03;;;25.70;44.45
70370;BME280;57790;51.356;-2.906;2022-08-21T17:04:36;101571.38;;;25.65;45.08
70370;BME280;57790;51.356;-2.906;2022-08-21T17:07:37;101569.22;;;25.67;44.90